createdAt,value
2019-05-07T00:00:58.613Z,1011.84
2019-05-07T00:01:58.658Z,1011.84
2019-05-07T00:02:58.662Z,1011.85
2019-05-07T00:03:58.660Z,1011.81
2019-05-07T00:04:58.677Z,1011.80
2019-05-07T00:05:58.660Z,1011.81
2019-05-07T00:06:58.664Z,1011.83
2019-05-07T00:07:58.675Z,1011.84
2019-05-07T00:08:58.697Z,1011.82
2019-05-07T00:09:58.709Z,1011.85
2019-05-07T00:10:58.723Z,1011.85
2019-05-07T00:11:58.741Z,1011.89
2019-05-07T00:12:58.761Z,1011.84
2019-05-07T00:13:58.775Z,1011.86
2019-05-07T00:15:01.464Z,1011.82
2019-05-07T00:15:58.805Z,1011.80
2019-05-07T00:16:58.821Z,1011.86
2019-05-07T00:17:58.837Z,1011.87
2019-05-07T00:18:58.855Z,1011.86
2019-05-07T00:19:58.871Z,1011.88
2019-05-07T00:20:58.888Z,1011.87
2019-05-07T00:21:58.900Z,1011.81
2019-05-07T00:22:58.916Z,1011.84
2019-05-07T00:23:58.934Z,1011.83
2019-05-07T00:24:58.950Z,1011.83
2019-05-07T00:25:58.964Z,1011.89
2019-05-07T00:26:58.984Z,1011.89
2019-05-07T00:27:58.995Z,1011.83
2019-05-07T00:28:59.013Z,1011.86
2019-05-07T00:29:59.027Z,1011.89
2019-05-07T00:30:59.043Z,1011.87
2019-05-07T00:31:59.059Z,1011.89
2019-05-07T00:32:59.076Z,1011.89
2019-05-07T00:33:59.089Z,1011.93
2019-05-07T00:34:59.107Z,1011.90
2019-05-07T00:35:59.120Z,1011.91
2019-05-07T00:36:59.137Z,1011.91
2019-05-07T00:37:59.154Z,1011.93
2019-05-07T00:38:59.169Z,1011.94
2019-05-07T00:39:59.184Z,1011.92
2019-05-07T00:40:59.203Z,1011.94
2019-05-07T00:41:59.219Z,1011.99
2019-05-07T00:42:59.229Z,1011.96
2019-05-07T00:43:59.245Z,1011.98
2019-05-07T00:45:13.053Z,1011.96
2019-05-07T00:45:59.275Z,1012.01
2019-05-07T00:46:59.292Z,1011.94
2019-05-07T00:47:59.306Z,1012.00
2019-05-07T00:48:59.326Z,1011.95
2019-05-07T00:49:59.336Z,1011.97
2019-05-07T00:50:59.349Z,1011.94
2019-05-07T00:51:59.367Z,1011.93
2019-05-07T00:52:59.381Z,1011.93
2019-05-07T00:53:59.399Z,1011.91
2019-05-07T00:54:59.415Z,1011.93
2019-05-07T00:55:59.426Z,1011.92
2019-05-07T00:56:59.446Z,1011.93
2019-05-07T00:57:59.459Z,1011.97
2019-05-07T00:58:59.475Z,1011.98
2019-05-07T00:59:59.493Z,1012.00
2019-05-07T01:00:59.504Z,1012.02
2019-05-07T01:01:59.520Z,1012.01
2019-05-07T01:02:59.538Z,1012.02
2019-05-07T01:03:59.552Z,1011.97
2019-05-07T01:04:59.565Z,1011.96
2019-05-07T01:05:59.578Z,1012.00
2019-05-07T01:06:59.594Z,1012.01
2019-05-07T01:07:59.610Z,1011.95
2019-05-07T01:08:59.625Z,1011.97
2019-05-07T01:10:02.006Z,1011.99
2019-05-07T01:10:59.653Z,1012.01
2019-05-07T01:11:59.669Z,1012.03
2019-05-07T01:12:59.690Z,1011.96
2019-05-07T01:13:59.701Z,1011.98
2019-05-07T01:14:59.716Z,1011.90
2019-05-07T01:15:59.731Z,1011.93
2019-05-07T01:16:59.745Z,1011.92
2019-05-07T01:17:59.759Z,1011.91
2019-05-07T01:19:01.478Z,1011.95
2019-05-07T01:19:59.790Z,1011.94
2019-05-07T01:20:59.805Z,1011.91
2019-05-07T01:21:59.820Z,1011.92
2019-05-07T01:22:59.834Z,1011.89
2019-05-07T01:23:59.851Z,1011.94
2019-05-07T01:25:02.133Z,1011.94
2019-05-07T01:25:59.879Z,1011.93
2019-05-07T01:27:02.052Z,1011.91
2019-05-07T01:27:59.908Z,1011.88
2019-05-07T01:29:02.435Z,1011.91
2019-05-07T01:30:02.308Z,1011.93
2019-05-07T01:31:02.085Z,1011.90
2019-05-07T01:31:59.969Z,1011.90
2019-05-07T01:32:59.983Z,1011.94
2019-05-07T01:34:00.003Z,1011.94
2019-05-07T01:35:02.314Z,1011.95
2019-05-07T01:36:02.323Z,1011.92
2019-05-07T01:37:00.045Z,1011.95
2019-05-07T01:38:00.056Z,1011.93
2019-05-07T01:39:00.072Z,1011.93
2019-05-07T01:40:00.085Z,1011.96
2019-05-07T01:41:00.101Z,1011.97
2019-05-07T01:42:01.982Z,1011.97
2019-05-07T01:43:02.429Z,1011.98
2019-05-07T01:44:01.933Z,1012.01
2019-05-07T01:45:01.886Z,1011.99
2019-05-07T01:46:00.176Z,1011.96
2019-05-07T01:47:02.248Z,1011.99
2019-05-07T01:48:04.257Z,1012.01
2019-05-07T01:49:00.223Z,1011.99
2019-05-07T01:50:02.781Z,1012.01
2019-05-07T01:51:00.250Z,1012.03
2019-05-07T01:52:02.293Z,1012.03
2019-05-07T01:53:00.280Z,1011.99
2019-05-07T01:54:02.051Z,1011.96
2019-05-07T01:55:02.980Z,1011.98
2019-05-07T01:56:00.323Z,1011.94
2019-05-07T01:57:02.643Z,1011.93
2019-05-07T01:58:00.350Z,1011.95
2019-05-07T01:59:02.245Z,1011.94
2019-05-07T02:00:02.389Z,1011.94
2019-05-07T02:01:02.588Z,1011.94
2019-05-07T02:02:02.877Z,1011.97
2019-05-07T02:03:02.732Z,1011.99
2019-05-07T02:04:02.210Z,1011.96
2019-05-07T02:05:00.520Z,1011.90
2019-05-07T02:06:02.167Z,1011.97
2019-05-07T02:07:02.673Z,1011.95
2019-05-07T02:08:02.801Z,1011.97
2019-05-07T02:09:02.237Z,1011.98
2019-05-07T02:10:02.649Z,1011.95
2019-05-07T02:11:02.092Z,1011.96
2019-05-07T02:12:02.288Z,1011.94
2019-05-07T02:13:02.207Z,1011.97
2019-05-07T02:14:02.051Z,1011.94
2019-05-07T02:15:02.460Z,1011.93
2019-05-07T02:16:01.893Z,1011.88
2019-05-07T02:17:02.738Z,1011.89
2019-05-07T02:18:01.936Z,1011.90
2019-05-07T02:19:02.112Z,1011.94
2019-05-07T02:20:02.553Z,1011.90
2019-05-07T02:21:03.047Z,1011.89
2019-05-07T02:22:02.587Z,1011.90
2019-05-07T02:23:02.584Z,1011.93
2019-05-07T02:24:00.741Z,1011.95
2019-05-07T02:25:03.086Z,1011.95
2019-05-07T02:26:02.395Z,1011.95
2019-05-07T02:27:02.836Z,1011.90
2019-05-07T02:28:02.154Z,1011.87
2019-05-07T02:29:02.559Z,1011.94
2019-05-07T02:30:04.062Z,1011.95
2019-05-07T02:31:03.807Z,1011.90
2019-05-07T02:32:04.197Z,1011.90
2019-05-07T02:33:03.435Z,1011.94
2019-05-07T02:34:02.763Z,1011.91
2019-05-07T02:35:03.969Z,1011.91
2019-05-07T02:36:03.105Z,1011.91
2019-05-07T02:37:03.807Z,1011.87
2019-05-07T02:38:03.132Z,1011.87
2019-05-07T02:39:03.628Z,1011.89
2019-05-07T02:40:04.189Z,1011.89
2019-05-07T02:41:02.879Z,1011.90
2019-05-07T02:42:03.465Z,1011.90
2019-05-07T02:43:02.871Z,1011.88
2019-05-07T02:44:04.014Z,1011.93
2019-05-07T02:45:04.157Z,1011.92
2019-05-07T02:46:17.328Z,1011.89
2019-05-07T02:47:03.728Z,1011.92
2019-05-07T02:48:03.513Z,1011.91
2019-05-07T02:49:03.173Z,1011.92
2019-05-07T02:50:03.075Z,1011.89
2019-05-07T02:51:03.882Z,1011.91
2019-05-07T02:52:03.805Z,1011.88
2019-05-07T02:53:03.902Z,1011.88
2019-05-07T02:54:03.669Z,1011.91
2019-05-07T02:55:03.856Z,1011.90
2019-05-07T02:56:03.519Z,1011.89
2019-05-07T02:57:03.219Z,1011.88
2019-05-07T02:58:03.546Z,1011.89
2019-05-07T02:59:04.010Z,1011.93
2019-05-07T03:00:04.419Z,1011.89
2019-05-07T03:01:04.447Z,1011.91
2019-05-07T03:02:03.677Z,1011.85
2019-05-07T03:03:03.788Z,1011.91
2019-05-07T03:04:03.612Z,1011.90
2019-05-07T03:05:04.824Z,1011.91
2019-05-07T03:06:02.885Z,1011.92
2019-05-07T03:07:03.909Z,1011.86
2019-05-07T03:08:03.335Z,1011.90
2019-05-07T03:09:03.236Z,1011.91
2019-05-07T03:10:03.633Z,1011.90
2019-05-07T03:11:03.264Z,1011.92
2019-05-07T03:12:04.016Z,1011.88
2019-05-07T03:13:03.098Z,1011.87
2019-05-07T03:14:03.187Z,1011.88
2019-05-07T03:15:04.358Z,1011.91
2019-05-07T03:16:03.801Z,1011.90
2019-05-07T03:17:02.982Z,1011.90
2019-05-07T03:18:03.340Z,1011.90
2019-05-07T03:19:04.092Z,1011.91
2019-05-07T03:20:03.158Z,1011.92
2019-05-07T03:21:03.472Z,1011.87
2019-05-07T03:22:03.943Z,1011.88
2019-05-07T03:23:03.111Z,1011.87
2019-05-07T03:24:03.418Z,1011.84
2019-05-07T03:25:03.312Z,1011.89
2019-05-07T03:26:04.077Z,1011.91
2019-05-07T03:27:03.195Z,1011.90
2019-05-07T03:28:04.259Z,1011.88
2019-05-07T03:29:03.942Z,1011.89
2019-05-07T03:30:04.419Z,1011.93
2019-05-07T03:31:05.993Z,1011.92
2019-05-07T03:32:05.901Z,1011.96
2019-05-07T03:33:06.470Z,1011.90
2019-05-07T03:34:06.289Z,1011.88
2019-05-07T03:35:06.711Z,1011.88
2019-05-07T03:36:06.718Z,1011.92
2019-05-07T03:37:06.279Z,1011.94
2019-05-07T03:38:03.441Z,1011.92
2019-05-07T03:39:03.404Z,1011.92
2019-05-07T03:40:03.942Z,1011.94
2019-05-07T03:41:03.791Z,1011.91
2019-05-07T03:42:03.419Z,1011.90
2019-05-07T03:43:05.638Z,1011.92
2019-05-07T03:44:03.745Z,1011.90
2019-05-07T03:45:03.631Z,1011.91
2019-05-07T03:46:03.565Z,1011.95
2019-05-07T03:47:06.075Z,1011.94
2019-05-07T03:48:03.691Z,1011.96
2019-05-07T03:49:03.971Z,1011.98
2019-05-07T03:50:03.307Z,1012.00
2019-05-07T03:51:03.731Z,1011.99
2019-05-07T03:52:04.388Z,1012.01
2019-05-07T03:53:02.765Z,1012.01
2019-05-07T03:54:03.104Z,1011.99
2019-05-07T03:55:03.702Z,1012.03
2019-05-07T03:56:04.184Z,1012.05
2019-05-07T03:57:10.362Z,1012.04
2019-05-07T03:58:03.221Z,1012.08
2019-05-07T03:59:03.641Z,1012.11
2019-05-07T04:00:04.270Z,1012.14
2019-05-07T04:01:04.368Z,1012.14
2019-05-07T04:02:03.369Z,1012.12
2019-05-07T04:03:03.707Z,1012.12
2019-05-07T04:04:03.725Z,1012.16
2019-05-07T04:05:04.216Z,1012.12
2019-05-07T04:06:03.879Z,1012.12
2019-05-07T04:07:03.312Z,1012.15
2019-05-07T04:08:03.284Z,1012.13
2019-05-07T04:09:03.478Z,1012.13
2019-05-07T04:10:04.343Z,1012.13
2019-05-07T04:11:03.605Z,1012.17
2019-05-07T04:12:03.851Z,1012.11
2019-05-07T04:13:04.504Z,1012.15
2019-05-07T04:14:02.822Z,1012.20
2019-05-07T04:15:03.383Z,1012.19
2019-05-07T04:16:04.107Z,1012.22
2019-05-07T04:17:14.349Z,1012.20
2019-05-07T04:18:03.569Z,1012.23
2019-05-07T04:19:03.868Z,1012.21
2019-05-07T04:20:04.413Z,1012.19
2019-05-07T04:21:03.713Z,1012.16
2019-05-07T04:22:04.362Z,1012.22
2019-05-07T04:23:04.206Z,1012.19
2019-05-07T04:24:03.539Z,1012.25
2019-05-07T04:25:04.323Z,1012.23
2019-05-07T04:26:04.250Z,1012.23
2019-05-07T04:27:03.740Z,1012.27
2019-05-07T04:28:03.840Z,1012.27
2019-05-07T04:29:05.548Z,1012.26
2019-05-07T04:30:03.748Z,1012.26
2019-05-07T04:31:03.046Z,1012.30
2019-05-07T04:32:03.186Z,1012.31
2019-05-07T04:33:03.443Z,1012.26
2019-05-07T04:34:03.677Z,1012.29
2019-05-07T04:35:03.961Z,1012.29
2019-05-07T04:36:02.985Z,1012.29
2019-05-07T04:37:03.318Z,1012.30
2019-05-07T04:38:06.672Z,1012.27
2019-05-07T04:39:03.164Z,1012.31
2019-05-07T04:40:03.412Z,1012.27
2019-05-07T04:41:03.749Z,1012.35
2019-05-07T04:42:03.551Z,1012.37
2019-05-07T04:43:02.978Z,1012.37
2019-05-07T04:44:03.679Z,1012.38
2019-05-07T04:45:04.224Z,1012.40
2019-05-07T04:46:03.407Z,1012.45
2019-05-07T04:47:04.280Z,1012.45
2019-05-07T04:48:03.263Z,1012.48
2019-05-07T04:49:03.733Z,1012.46
2019-05-07T04:50:03.726Z,1012.46
2019-05-07T04:51:03.515Z,1012.48
2019-05-07T04:52:03.940Z,1012.51
2019-05-07T04:53:03.043Z,1012.50
2019-05-07T04:54:03.563Z,1012.52
2019-05-07T04:55:04.212Z,1012.53
2019-05-07T04:56:03.512Z,1012.54
2019-05-07T04:57:03.668Z,1012.52
2019-05-07T04:58:05.998Z,1012.54
2019-05-07T04:59:03.663Z,1012.51
2019-05-07T05:00:03.639Z,1012.55
2019-05-07T05:01:03.411Z,1012.61
2019-05-07T05:02:04.075Z,1012.59
2019-05-07T05:03:03.450Z,1012.55
2019-05-07T05:04:20.682Z,1012.61
2019-05-07T05:05:03.490Z,1012.59
2019-05-07T05:06:03.191Z,1012.58
2019-05-07T05:07:03.221Z,1012.56
2019-05-07T05:08:03.851Z,1012.56
2019-05-07T05:09:03.284Z,1012.54
2019-05-07T05:10:03.258Z,1012.59
2019-05-07T05:11:03.620Z,1012.54
2019-05-07T05:12:03.289Z,1012.60
2019-05-07T05:13:03.437Z,1012.59
2019-05-07T05:14:07.340Z,1012.62
2019-05-07T05:15:03.340Z,1012.60
2019-05-07T05:16:03.350Z,1012.60
2019-05-07T05:17:03.371Z,1012.62
2019-05-07T05:18:03.382Z,1012.67
2019-05-07T05:19:03.404Z,1012.66
2019-05-07T05:20:03.757Z,1012.69
2019-05-07T05:21:03.447Z,1012.69
2019-05-07T05:22:03.447Z,1012.72
2019-05-07T05:23:03.463Z,1012.76
2019-05-07T05:24:03.482Z,1012.74
2019-05-07T05:25:03.502Z,1012.68
2019-05-07T05:26:03.510Z,1012.69
2019-05-07T05:27:03.530Z,1012.74
2019-05-07T05:28:03.542Z,1012.75
2019-05-07T05:29:03.560Z,1012.81
2019-05-07T05:30:03.575Z,1012.83
2019-05-07T05:31:03.592Z,1012.79
2019-05-07T05:32:03.606Z,1012.85
2019-05-07T05:33:04.415Z,1012.87
2019-05-07T05:34:03.637Z,1012.91
2019-05-07T05:35:03.654Z,1012.89
2019-05-07T05:36:03.670Z,1012.90
2019-05-07T05:37:03.689Z,1012.94
2019-05-07T05:38:03.703Z,1012.99
2019-05-07T05:39:03.724Z,1012.93
2019-05-07T05:40:08.704Z,1012.85
2019-05-07T05:41:03.756Z,1012.94
2019-05-07T05:42:03.768Z,1012.94
2019-05-07T05:43:03.784Z,1012.96
2019-05-07T05:44:03.801Z,1012.95
2019-05-07T05:45:03.816Z,1012.96
2019-05-07T05:46:03.833Z,1012.90
2019-05-07T05:47:03.850Z,1012.88
2019-05-07T05:48:07.466Z,1012.90
2019-05-07T05:49:03.883Z,1012.93
2019-05-07T05:50:03.899Z,1012.96
2019-05-07T05:51:03.916Z,1012.97
2019-05-07T05:52:03.937Z,1012.95
2019-05-07T05:53:03.950Z,1012.99
2019-05-07T05:54:03.967Z,1013.01
2019-05-07T05:55:03.982Z,1012.93
2019-05-07T05:56:04.000Z,1012.89
2019-05-07T05:57:04.015Z,1012.86
2019-05-07T05:58:04.036Z,1012.94
2019-05-07T05:59:04.051Z,1013.00
2019-05-07T06:00:04.075Z,1012.97
2019-05-07T06:01:04.118Z,1013.01
2019-05-07T06:02:06.554Z,1012.94
2019-05-07T06:03:04.155Z,1012.89
2019-05-07T06:04:04.157Z,1012.92
2019-05-07T06:05:04.217Z,1012.92
2019-05-07T06:06:04.211Z,1012.92
2019-05-07T06:07:11.242Z,1012.92
2019-05-07T06:08:04.223Z,1012.98
2019-05-07T06:09:04.216Z,1012.97
2019-05-07T06:10:04.231Z,1012.90
2019-05-07T06:11:04.249Z,1012.89
2019-05-07T06:12:04.268Z,1012.92
2019-05-07T06:13:04.281Z,1012.89
2019-05-07T06:14:04.307Z,1012.96
2019-05-07T06:15:04.317Z,1012.98
2019-05-07T06:16:04.332Z,1012.98
2019-05-07T06:17:04.349Z,1012.89
2019-05-07T06:18:18.012Z,1012.96
2019-05-07T06:19:04.382Z,1012.99
2019-05-07T06:20:04.398Z,1012.93
2019-05-07T06:21:04.416Z,1012.88
2019-05-07T06:22:04.432Z,1012.86
2019-05-07T06:23:04.450Z,1012.90
2019-05-07T06:24:04.466Z,1012.93
2019-05-07T06:25:04.483Z,1013.01
2019-05-07T06:26:05.043Z,1012.94
2019-05-07T06:27:04.525Z,1012.98
2019-05-07T06:28:04.539Z,1012.96
2019-05-07T06:29:04.554Z,1012.91
2019-05-07T06:30:05.037Z,1012.92
2019-05-07T06:31:04.594Z,1013.04
2019-05-07T06:32:04.610Z,1013.01
2019-05-07T06:33:04.626Z,1013.01
2019-05-07T06:34:04.644Z,1013.05
2019-05-07T06:35:04.662Z,1012.96
2019-05-07T06:36:04.680Z,1013.00
2019-05-07T06:37:04.701Z,1012.97
2019-05-07T06:38:04.717Z,1013.02
2019-05-07T06:39:04.735Z,1013.05
2019-05-07T06:40:04.754Z,1013.11
2019-05-07T06:41:04.772Z,1013.08
2019-05-07T06:42:04.790Z,1013.10
2019-05-07T06:43:04.810Z,1013.11
2019-05-07T06:44:04.826Z,1013.05
2019-05-07T06:45:04.846Z,1013.03
2019-05-07T06:46:04.870Z,1013.08
2019-05-07T06:47:04.882Z,1013.10
2019-05-07T06:48:04.906Z,1013.09
2019-05-07T06:49:04.922Z,1013.12
2019-05-07T06:50:04.938Z,1013.22
2019-05-07T06:51:04.960Z,1013.21
2019-05-07T06:52:04.978Z,1013.23
2019-05-07T06:53:04.998Z,1013.15
2019-05-07T06:54:05.017Z,1013.05
2019-05-07T06:55:05.035Z,1013.09
2019-05-07T06:56:05.057Z,1013.10
2019-05-07T06:57:05.076Z,1013.13
2019-05-07T06:58:05.094Z,1013.11
2019-05-07T06:59:05.113Z,1013.06
2019-05-07T07:00:05.135Z,1013.07
2019-05-07T07:01:05.152Z,1013.13
2019-05-07T07:02:05.787Z,1013.13
2019-05-07T07:03:05.189Z,1013.15
2019-05-07T07:04:05.211Z,1013.12
2019-05-07T07:05:05.232Z,1013.23
2019-05-07T07:06:05.247Z,1013.19
2019-05-07T07:07:05.267Z,1013.16
2019-05-07T07:08:05.292Z,1013.15
2019-05-07T07:09:05.311Z,1013.13
2019-05-07T07:10:05.330Z,1013.12
2019-05-07T07:11:05.351Z,1013.15
2019-05-07T07:12:05.370Z,1013.26
2019-05-07T07:13:05.394Z,1013.26
2019-05-07T07:14:05.416Z,1013.28
2019-05-07T07:15:05.465Z,1013.28
2019-05-07T07:16:05.457Z,1013.16
2019-05-07T07:17:05.482Z,1013.21
2019-05-07T07:18:05.508Z,1013.23
2019-05-07T07:19:05.523Z,1013.20
2019-05-07T07:20:05.546Z,1013.22
2019-05-07T07:21:05.570Z,1013.13
2019-05-07T07:22:05.587Z,1013.07
2019-05-07T07:23:05.612Z,1013.07
2019-05-07T07:24:05.635Z,1013.12
2019-05-07T07:25:06.695Z,1013.13
2019-05-07T07:26:05.678Z,1013.18
2019-05-07T07:27:05.700Z,1013.24
2019-05-07T07:28:05.723Z,1013.25
2019-05-07T07:29:05.745Z,1013.30
2019-05-07T07:30:05.767Z,1013.24
2019-05-07T07:31:05.790Z,1013.16
2019-05-07T07:32:05.814Z,1013.15
2019-05-07T07:33:05.835Z,1013.19
2019-05-07T07:34:05.856Z,1013.14
2019-05-07T07:35:05.877Z,1013.08
2019-05-07T07:36:05.901Z,1013.09
2019-05-07T07:37:09.133Z,1013.11
2019-05-07T07:38:05.959Z,1013.03
2019-05-07T07:39:06.026Z,1013.04
2019-05-07T07:40:06.039Z,1013.08
2019-05-07T07:41:06.037Z,1013.16
2019-05-07T07:42:06.094Z,1013.10
2019-05-07T07:43:07.173Z,1013.12
2019-05-07T07:44:06.094Z,1013.08
2019-05-07T07:45:06.103Z,1013.11
2019-05-07T07:46:06.127Z,1013.05
2019-05-07T07:47:06.147Z,1013.02
2019-05-07T07:48:06.171Z,1013.06
2019-05-07T07:49:11.001Z,1013.02
2019-05-07T07:50:06.214Z,1013.03
2019-05-07T07:51:06.239Z,1013.06
2019-05-07T07:52:06.260Z,1013.01
2019-05-07T07:53:06.280Z,1012.96
2019-05-07T07:54:06.303Z,1012.97
2019-05-07T07:55:06.332Z,1013.00
2019-05-07T07:56:06.351Z,1012.92
2019-05-07T07:57:06.375Z,1013.01
2019-05-07T07:58:06.398Z,1012.91
2019-05-07T07:59:06.423Z,1012.95
2019-05-07T08:00:06.448Z,1012.94
2019-05-07T08:01:06.471Z,1012.94
2019-05-07T08:02:06.501Z,1013.05
2019-05-07T08:03:06.518Z,1013.04
2019-05-07T08:04:06.543Z,1012.99
2019-05-07T08:05:06.566Z,1013.01
2019-05-07T08:06:06.587Z,1013.04
2019-05-07T08:07:06.611Z,1013.04
2019-05-07T08:08:06.638Z,1013.15
2019-05-07T08:09:06.661Z,1013.11
2019-05-07T08:10:06.681Z,1013.11
2019-05-07T08:11:06.715Z,1013.10
2019-05-07T08:12:06.864Z,1012.99
2019-05-07T08:13:06.759Z,1013.04
2019-05-07T08:14:06.785Z,1012.99
2019-05-07T08:15:17.268Z,1013.03
2019-05-07T08:16:06.835Z,1013.06
2019-05-07T08:17:06.861Z,1013.00
2019-05-07T08:18:06.884Z,1012.93
2019-05-07T08:19:18.461Z,1012.88
2019-05-07T08:20:06.929Z,1012.93
2019-05-07T08:21:08.042Z,1012.95
2019-05-07T08:22:06.976Z,1012.96
2019-05-07T08:23:06.999Z,1012.95
2019-05-07T08:24:07.021Z,1012.91
2019-05-07T08:25:07.045Z,1012.92
2019-05-07T08:26:07.067Z,1012.86
2019-05-07T08:27:07.095Z,1012.87
2019-05-07T08:28:07.115Z,1012.97
2019-05-07T08:29:07.137Z,1012.97
2019-05-07T08:30:07.160Z,1013.00
2019-05-07T08:31:07.179Z,1013.02
2019-05-07T08:32:07.200Z,1013.03
2019-05-07T08:33:09.669Z,1013.03
2019-05-07T08:34:07.245Z,1013.04
2019-05-07T08:35:07.269Z,1013.00
2019-05-07T08:36:07.285Z,1012.99
2019-05-07T08:37:07.311Z,1012.94
2019-05-07T08:38:07.331Z,1013.07
2019-05-07T08:39:07.352Z,1013.06
2019-05-07T08:40:07.374Z,1013.08
2019-05-07T08:41:07.395Z,1013.14
2019-05-07T08:42:07.417Z,1013.10
2019-05-07T08:43:07.436Z,1013.10
2019-05-07T08:44:11.611Z,1013.21
2019-05-07T08:45:07.497Z,1013.19
2019-05-07T08:46:07.500Z,1013.09
2019-05-07T08:47:07.522Z,1013.07
2019-05-07T08:48:07.543Z,1012.99
2019-05-07T08:49:07.569Z,1013.05
2019-05-07T08:50:07.580Z,1013.05
2019-05-07T08:51:07.605Z,1012.92
2019-05-07T08:52:07.629Z,1012.96
2019-05-07T08:53:07.646Z,1012.89
2019-05-07T08:54:07.666Z,1012.84
2019-05-07T08:55:07.689Z,1012.87
2019-05-07T08:56:07.709Z,1012.81
2019-05-07T08:57:07.730Z,1012.82
2019-05-07T08:58:07.751Z,1012.83
2019-05-07T08:59:07.773Z,1012.77
2019-05-07T09:00:07.792Z,1012.75
2019-05-07T09:01:07.815Z,1012.82
2019-05-07T09:02:07.838Z,1012.82
2019-05-07T09:03:19.282Z,1012.81
2019-05-07T09:04:07.932Z,1012.86
2019-05-07T09:05:09.336Z,1012.82
2019-05-07T09:06:07.993Z,1012.85
2019-05-07T09:07:07.996Z,1012.88
2019-05-07T09:08:07.989Z,1012.85
2019-05-07T09:09:07.989Z,1012.80
2019-05-07T09:10:07.997Z,1012.83
2019-05-07T09:11:08.018Z,1012.85
2019-05-07T09:12:08.039Z,1012.86
2019-05-07T09:13:08.060Z,1012.87
2019-05-07T09:14:08.078Z,1012.91
2019-05-07T09:15:08.099Z,1012.98
2019-05-07T09:16:08.119Z,1012.98
2019-05-07T09:17:08.137Z,1012.94
2019-05-07T09:18:08.164Z,1012.98
2019-05-07T09:19:08.177Z,1013.00
2019-05-07T09:20:09.269Z,1013.00
2019-05-07T09:21:08.219Z,1012.85
2019-05-07T09:22:08.241Z,1012.85
2019-05-07T09:23:08.260Z,1012.84
2019-05-07T09:24:08.278Z,1012.80
2019-05-07T09:25:08.303Z,1012.78
2019-05-07T09:26:08.321Z,1012.85
2019-05-07T09:27:08.343Z,1012.82
2019-05-07T09:28:08.366Z,1012.85
2019-05-07T09:29:08.384Z,1012.89
2019-05-07T09:30:08.404Z,1012.96
2019-05-07T09:31:08.423Z,1013.00
2019-05-07T09:32:08.446Z,1012.97
2019-05-07T09:33:08.466Z,1012.99
2019-05-07T09:34:08.487Z,1012.99
2019-05-07T09:35:08.509Z,1012.94
2019-05-07T09:36:08.529Z,1012.93
2019-05-07T09:37:08.548Z,1012.91
2019-05-07T09:38:08.569Z,1012.85
2019-05-07T09:39:08.590Z,1012.91
2019-05-07T09:40:08.610Z,1012.92
2019-05-07T09:41:08.635Z,1012.95
2019-05-07T09:42:08.653Z,1012.94
2019-05-07T09:43:08.675Z,1012.89
2019-05-07T09:44:08.697Z,1012.91
2019-05-07T09:45:08.718Z,1012.85
2019-05-07T09:46:08.739Z,1012.88
2019-05-07T09:47:08.763Z,1012.86
2019-05-07T09:48:08.786Z,1012.82
2019-05-07T09:49:08.810Z,1012.75
2019-05-07T09:50:09.052Z,1012.85
2019-05-07T09:51:08.852Z,1012.82
2019-05-07T09:52:08.875Z,1012.89
2019-05-07T09:53:08.898Z,1012.84
2019-05-07T09:54:08.930Z,1012.87
2019-05-07T09:55:14.904Z,1012.81
2019-05-07T09:56:08.968Z,1012.90
2019-05-07T09:57:25.196Z,1012.90
2019-05-07T09:58:09.014Z,1012.82
2019-05-07T09:59:09.036Z,1012.80
2019-05-07T10:00:09.059Z,1012.84
2019-05-07T10:01:09.081Z,1012.84
2019-05-07T10:02:09.103Z,1012.79
2019-05-07T10:03:09.125Z,1012.82
2019-05-07T10:04:09.149Z,1012.71
2019-05-07T10:05:09.174Z,1012.74
2019-05-07T10:06:09.194Z,1012.66
2019-05-07T10:07:09.215Z,1012.62
2019-05-07T10:08:09.239Z,1012.57
2019-05-07T10:09:09.266Z,1012.64
2019-05-07T10:10:09.285Z,1012.69
2019-05-07T10:11:09.309Z,1012.77
2019-05-07T10:12:09.337Z,1012.82
2019-05-07T10:13:09.357Z,1012.79
2019-05-07T10:14:09.375Z,1012.79
2019-05-07T10:15:09.400Z,1012.80
2019-05-07T10:16:09.420Z,1012.82
2019-05-07T10:17:09.443Z,1012.89
2019-05-07T10:18:09.469Z,1012.83
2019-05-07T10:19:09.489Z,1012.84
2019-05-07T10:20:19.244Z,1012.82
2019-05-07T10:21:09.534Z,1012.78
2019-05-07T10:22:09.561Z,1012.84
2019-05-07T10:23:11.334Z,1012.83
2019-05-07T10:24:09.610Z,1012.80
2019-05-07T10:25:11.989Z,1012.80
2019-05-07T10:26:09.657Z,1012.70
2019-05-07T10:27:09.683Z,1012.60
2019-05-07T10:28:09.711Z,1012.66
2019-05-07T10:29:09.756Z,1012.74
2019-05-07T10:30:09.820Z,1012.76
2019-05-07T10:31:09.821Z,1012.72
2019-05-07T10:32:09.875Z,1012.69
2019-05-07T10:33:09.883Z,1012.61
2019-05-07T10:34:12.123Z,1012.47
2019-05-07T10:35:12.537Z,1012.46
2019-05-07T10:36:09.939Z,1012.60
2019-05-07T10:37:11.873Z,1012.62
2019-05-07T10:38:09.995Z,1012.55
2019-05-07T10:39:10.026Z,1012.67
2019-05-07T10:40:12.056Z,1012.68
2019-05-07T10:41:12.025Z,1012.70
2019-05-07T10:42:12.185Z,1012.66
2019-05-07T10:43:10.140Z,1012.65
2019-05-07T10:44:11.895Z,1012.65
2019-05-07T10:45:10.194Z,1012.66
2019-05-07T10:46:10.220Z,1012.64
2019-05-07T10:47:12.006Z,1012.65
2019-05-07T10:48:11.720Z,1012.68
2019-05-07T10:49:12.177Z,1012.69
2019-05-07T10:50:11.866Z,1012.66
2019-05-07T10:51:10.349Z,1012.70
2019-05-07T10:52:12.428Z,1012.81
2019-05-07T10:53:12.415Z,1012.75
2019-05-07T10:54:12.266Z,1012.75
2019-05-07T10:55:12.040Z,1012.72
2019-05-07T10:56:11.810Z,1012.72
2019-05-07T10:57:11.955Z,1012.68
2019-05-07T10:58:10.526Z,1012.71
2019-05-07T10:59:12.255Z,1012.66
2019-05-07T11:00:12.253Z,1012.66
2019-05-07T11:01:12.030Z,1012.68
2019-05-07T11:02:12.509Z,1012.67
2019-05-07T11:03:12.478Z,1012.66
2019-05-07T11:04:12.672Z,1012.73
2019-05-07T11:05:12.779Z,1012.50
2019-05-07T11:06:11.983Z,1012.51
2019-05-07T11:07:10.743Z,1012.56
2019-05-07T11:08:10.766Z,1012.50
2019-05-07T11:09:10.792Z,1012.51
2019-05-07T11:10:12.390Z,1012.60
2019-05-07T11:11:10.837Z,1012.76
2019-05-07T11:12:12.592Z,1012.60
2019-05-07T11:13:12.672Z,1012.62
2019-05-07T11:14:12.308Z,1012.63
2019-05-07T11:15:12.613Z,1012.70
2019-05-07T11:16:11.799Z,1012.67
2019-05-07T11:17:11.851Z,1012.62
2019-05-07T11:18:12.615Z,1012.58
2019-05-07T11:19:12.702Z,1012.55
2019-05-07T11:20:12.139Z,1012.51
2019-05-07T11:21:11.871Z,1012.56
2019-05-07T11:22:11.630Z,1012.54
2019-05-07T11:23:11.142Z,1012.55
2019-05-07T11:24:12.098Z,1012.40
2019-05-07T11:25:12.027Z,1012.41
2019-05-07T11:26:11.793Z,1012.39
2019-05-07T11:27:11.970Z,1012.39
2019-05-07T11:28:12.331Z,1012.48
2019-05-07T11:29:13.043Z,1012.49
2019-05-07T11:30:11.906Z,1012.52
2019-05-07T11:31:12.423Z,1012.49
2019-05-07T11:32:12.351Z,1012.47
2019-05-07T11:33:12.746Z,1012.51
2019-05-07T11:34:11.908Z,1012.49
2019-05-07T11:35:12.153Z,1012.46
2019-05-07T11:36:11.514Z,1012.47
2019-05-07T11:37:11.903Z,1012.38
2019-05-07T11:38:21.104Z,1012.34
2019-05-07T11:39:12.176Z,1012.29
2019-05-07T11:40:13.135Z,1012.27
2019-05-07T11:41:12.785Z,1012.21
2019-05-07T11:42:12.713Z,1012.23
2019-05-07T11:43:13.025Z,1012.22
2019-05-07T11:44:12.377Z,1012.23
2019-05-07T11:45:12.269Z,1012.31
2019-05-07T11:46:13.135Z,1012.36
2019-05-07T11:47:12.351Z,1012.43
2019-05-07T11:48:13.275Z,1012.43
2019-05-07T11:49:13.824Z,1012.39
2019-05-07T11:50:14.650Z,1012.45
2019-05-07T11:51:12.296Z,1012.41
2019-05-07T11:52:12.254Z,1012.43
2019-05-07T11:53:12.070Z,1012.42
2019-05-07T11:54:12.645Z,1012.39
2019-05-07T11:55:12.182Z,1012.36
2019-05-07T11:56:12.175Z,1012.36
2019-05-07T11:57:12.209Z,1012.28
2019-05-07T11:58:12.873Z,1012.18
2019-05-07T11:59:13.327Z,1012.32
2019-05-07T12:00:12.914Z,1012.31
2019-05-07T12:01:12.591Z,1012.25
2019-05-07T12:02:12.384Z,1012.31
2019-05-07T12:03:12.419Z,1012.36
2019-05-07T12:04:12.588Z,1012.37
2019-05-07T12:05:12.489Z,1012.32
2019-05-07T12:06:12.598Z,1012.31